• Join FlightAware (Why Join?)
  • Login
  • US Flag 
01:36PM EDT


 

Airport Tracker/Info


-or-


 

Live Flight TrackerFlight Track Log ✈ N405DD ✈ 08-May-2013 ✈ KBIS - KBJI

Flight Track Log - Related Links

Times and Time Zones

All times are in EDT time to prevent confusion due to time zone crossing. See the N405DD flight status page for this flight to view local times or setup timezone preferences in your user account.

Time Position Orientation Groundspeed Altitude Reporting Facility
EDT Latitude Longitude Course Direction KTS MPH feet Rate Location/Type
09:13AM 46.7792 -100.5031 75° East 176 203 6,100  Level Minneapolis Center
09:14AM 46.7881 -100.4408 78° East 157 181 7,300 1,080 Climbing Minneapolis Center
09:15AM 46.8445 -100.2553 70° East  Level FlightAware Approximate
09:15AM 46.7978 -100.3794 77° East 156 180 8,400  Level Minneapolis Center
09:16AM 46.8577 -100.1757 79° East  Level FlightAware Approximate
09:16AM 46.8122 -100.2933 76° East 166 191 9,600  Level Minneapolis Center
09:17AM 46.8242 -100.2292 75° East 165 190 10,500 900 Climbing Minneapolis Center
09:18AM 46.8367 -100.1617 75° East 168 193 11,500 1,140 Climbing Minneapolis Center
09:19AM 46.8461 -100.0800 80° East 169 194 12,900 1,140 Climbing Minneapolis Center
09:20AM 46.8564 -100.0153 77° East 167 192 13,900 960 Climbing Minneapolis Center
09:21AM 46.8658 -99.9483 78° East 168 193 15,000 1,020 Climbing Minneapolis Center
09:22AM 46.8764 -99.8822 77° East 167 192 16,100 1,020 Climbing Minneapolis Center
09:23AM 46.8864 -99.8161 77° East 168 193 17,200 960 Climbing Minneapolis Center
09:24AM 46.8975 -99.7497 76° East 168 193 18,100 900 Climbing Minneapolis Center
09:25AM 46.9036 -99.6842 82° East 164 189 19,100 960 Climbing Minneapolis Center
09:26AM 46.9153 -99.6053 78° East 168 193 20,100 900 Climbing Minneapolis Center
09:27AM 46.9250 -99.5400 78° East 164 189 21,000 780 Climbing Minneapolis Center
09:28AM 46.9344 -99.4758 78° East 161 185 21,800 720 Climbing Minneapolis Center
09:29AM 46.9439 -99.4122 78° East 161 185 22,500 540 Climbing Minneapolis Center
09:30AM 46.9536 -99.3469 78° East 170 196 23,000 240 Climbing Minneapolis Center
09:31AM 46.9644 -99.2719 78° East 195 224 23,000  Level Minneapolis Center
09:32AM 46.9789 -99.1733 78° East 210 242 23,000  Level Minneapolis Center
09:33AM 46.9914 -99.0886 78° East 214 246 23,000  Level Minneapolis Center
09:34AM 47.0036 -99.0033 78° East 216 249 23,000  Level Minneapolis Center
09:35AM 47.0161 -98.9172 78° East 218 251 23,000  Level Minneapolis Center
09:36AM 47.0283 -98.8300 78° East 219 252 23,000  Level Minneapolis Center
09:37AM 47.0408 -98.7428 78° East 219 252 23,000  Level Minneapolis Center
09:38AM 47.0531 -98.6553 78° East 221 254 23,000  Level Minneapolis Center
09:40AM 47.0681 -98.5500 78° East 222 255 23,000  Level Minneapolis Center
09:41AM 47.0803 -98.4614 79° East 223 257 23,000  Level Minneapolis Center
09:42AM 47.0925 -98.3725 79° East 223 257 23,000  Level Minneapolis Center
09:47AM 47.1640 -97.8470 79° East 225 259 23,000  Level FlightAware
09:48AM 47.1720 -97.7870 79° East 225 259 23,000  Level FlightAware
09:49AM 47.1800 -97.7220 80° East 224 258 23,000  Level FlightAware
09:49AM 47.1880 -97.6630 79° East 224 258 23,000  Level FlightAware
09:50AM 47.1950 -97.6070 80° East 225 259 23,000  Level FlightAware
09:51AM 47.2040 -97.5370 79° East 223 257 23,000  Level FlightAware
09:52AM 47.2130 -97.4740 78° East 225 259 23,000  Level FlightAware
09:52AM 47.2210 -97.4080 80° East 225 259 23,000  Level FlightAware
09:53AM 47.2290 -97.3460 79° East 226 260 23,000  Level FlightAware
09:54AM 47.2370 -97.2790 80° East 226 260 23,000  Level FlightAware
09:55AM 47.2480 -97.1970 79° East 228 262 23,000  Level FlightAware
09:56AM 47.2590 -97.1100 79° East 228 262 23,000  Level FlightAware
09:56AM 47.2650 -97.0640 79° East 228 262 23,000  Level FlightAware
09:57AM 47.2750 -96.9820 80° East 230 265 23,000  Level FlightAware
09:58AM 47.2810 -96.9330 80° East 230 265 23,000  Level FlightAware
09:58AM 47.2910 -96.8500 80° East 231 266 23,000  Level FlightAware
09:59AM 47.2990 -96.7880 79° East 230 265 23,000  Level FlightAware
10:00AM 47.3070 -96.7250 79° East 231 266 23,000  Level FlightAware
10:00AM 47.3150 -96.6580 80° East 231 266 23,000  Level FlightAware
10:01AM 47.3220 -96.5990 80° East 231 266 23,000  Level FlightAware
10:02AM 47.3300 -96.5320 80° East 231 266 23,000  Level FlightAware
10:03AM 47.3390 -96.4620 79° East 231 266 23,000  Level FlightAware
10:03AM 47.3450 -96.4110 80° East 232 267 23,000  Level FlightAware
10:04AM 47.3540 -96.3300 81° East 233 268 23,000  Level FlightAware
10:05AM 47.3610 -96.2700 80° East 232 267 23,000 -240 Level FlightAware
10:05AM 47.3680 -96.2080 81° East 223 257 22,700 -1,020 Descending FlightAware
10:06AM 47.3760 -96.1370 81° East 234 269 21,600 -900 Descending FlightAware
10:07AM 47.3840 -96.0810 78° East 234 269 21,500 -1,500 Descending FlightAware
10:07AM 47.3920 -96.0090 81° East 243 280 19,600 -2,220 Descending FlightAware
10:08AM 47.3990 -95.9430 81° East 241 277 18,600 -720 Descending FlightAware
10:09AM 47.4080 -95.8790 78° East 241 277 18,600 -1,500 Level FlightAware
10:09AM 47.4150 -95.8090 82° East 240 276 16,500 -1,860 Descending FlightAware
10:10AM 47.4240 -95.7380 79° East 239 275 16,000 -360 Descending FlightAware
10:11AM 47.4310 -95.6830 79° East 239 275 16,000  Level FlightAware
10:12AM 47.4380 -95.6290 79° East 239 275 16,000  Level FlightAware
10:12AM 47.4450 -95.5740 79° East 239 275 16,000  Level FlightAware
10:13AM 47.4540 -95.5060 79° East 239 275 16,000  Level FlightAware
10:14AM 47.4610 -95.4510 79° East 239 275 16,000 -4,200 Level FlightAware
10:15AM 47.3722 -95.3722 79° East 202 232 9,700 -3,840 Descending Minneapolis Center
10:16AM 47.3617 -95.3008 102° East 185 213 8,900 -780 Descending Minneapolis Center
10:17AM 47.3517 -95.2311 102° East 178 205 8,100 -900 Descending Minneapolis Center
10:18AM 47.3408 -95.1481 101° East 174 200 7,100 -900 Descending Minneapolis Center
10:19AM 47.3306 -95.0803 103° East 172 198 6,300 -780 Descending Minneapolis Center
10:20AM 47.3217 -95.0125 101° East 171 197 5,500 -780 Descending Minneapolis Center
10:21AM 47.3131 -94.9456 101° East 169 194 4,700 -780 Descending Minneapolis Center
10:22AM 47.3022 -94.8772 103° East 169 194 4,000 -360 Descending Minneapolis Center
10:23AM 47.2953 -94.8167 100° East 163 188 4,000  Level Minneapolis Center
10:24AM 47.3289 -94.7700 43° Northeast 141 162 4,000  Level Minneapolis Center
10:25AM 47.3542 -94.7322 45° Northeast 135 155 4,000  Level Minneapolis Center